VIX weather

Eurico de Aguiar Salles Airport
Vitória, Espírito Santo, Brazil

Public forecast

Using degrees Celsius for public forecast. Weather courtesy of forecast.io.

Current aviation weather report (METAR) for Eurico de Aguiar Salles Airport

Retrieved 2020/07/12 09:00 UTC (35 minutes ago):

SBVT 120900Z 34001KT CAVOK 16/16 Q1019

Aviation forecast (TAF) for Eurico de Aguiar Salles Airport

Retrieved 2020/07/12 06:00 UTC (4 hours ago):

TAF SBVT 120300Z 1206/1306 020 04005KT CAVOK TN16/1206Z TX28/1217Z BECMG 1211/1213 01012KT RMK PDZ